sensor_id;sensor_type;location;lat;lon;timestamp;P1;durP1;ratioP1;P2;durP2;ratioP2
39242;SDS011;29823;47.404;8.566;2023-06-10T00:02:20;4.80;;;4.30;;
39242;SDS011;29823;47.404;8.566;2023-06-10T00:04:48;4.57;;;3.72;;
39242;SDS011;29823;47.404;8.566;2023-06-10T00:07:16;5.65;;;4.35;;
39242;SDS011;29823;47.404;8.566;2023-06-10T00:09:44;9.13;;;4.32;;
39242;SDS011;29823;47.404;8.566;2023-06-10T00:12:13;5.93;;;4.00;;
39242;SDS011;29823;47.404;8.566;2023-06-10T00:14:43;6.80;;;3.78;;
39242;SDS011;29823;47.404;8.566;2023-06-10T00:17:11;7.63;;;4.25;;
39242;SDS011;29823;47.404;8.566;2023-06-10T00:19:39;7.93;;;3.72;;
39242;SDS011;29823;47.404;8.566;2023-06-10T00:22:08;7.78;;;3.85;;
39242;SDS011;29823;47.404;8.566;2023-06-10T00:24:37;6.80;;;4.03;;
39242;SDS011;29823;47.404;8.566;2023-06-10T00:27:05;5.97;;;3.83;;
39242;SDS011;29823;47.404;8.566;2023-06-10T00:29:35;5.93;;;4.22;;
39242;SDS011;29823;47.404;8.566;2023-06-10T00:32:03;8.73;;;4.43;;
39242;SDS011;29823;47.404;8.566;2023-06-10T00:34:32;6.10;;;4.43;;
39242;SDS011;29823;47.404;8.566;2023-06-10T00:37:00;6.97;;;3.90;;
39242;SDS011;29823;47.404;8.566;2023-06-10T00:39:28;8.27;;;4.22;;
39242;SDS011;29823;47.404;8.566;2023-06-10T00:41:55;6.78;;;4.30;;
39242;SDS011;29823;47.404;8.566;2023-06-10T00:44:23;4.40;;;3.80;;
39242;SDS011;29823;47.404;8.566;2023-06-10T00:46:52;6.47;;;4.40;;
39242;SDS011;29823;47.404;8.566;2023-06-10T00:49:22;6.97;;;4.10;;
39242;SDS011;29823;47.404;8.566;2023-06-10T00:51:50;5.70;;;4.03;;
39242;SDS011;29823;47.404;8.566;2023-06-10T00:54:19;8.10;;;4.35;;
39242;SDS011;29823;47.404;8.566;2023-06-10T00:56:47;6.22;;;4.55;;
39242;SDS011;29823;47.404;8.566;2023-06-10T00:59:16;4.50;;;4.00;;
39242;SDS011;29823;47.404;8.566;2023-06-10T01:01:45;7.85;;;4.22;;
39242;SDS011;29823;47.404;8.566;2023-06-10T01:04:15;5.55;;;4.30;;
39242;SDS011;29823;47.404;8.566;2023-06-10T01:06:45;9.93;;;4.15;;
39242;SDS011;29823;47.404;8.566;2023-06-10T01:09:25;7.28;;;4.85;;
39242;SDS011;29823;47.404;8.566;2023-06-10T01:12:01;6.90;;;4.55;;
39242;SDS011;29823;47.404;8.566;2023-06-10T01:14:36;6.18;;;4.00;;
39242;SDS011;29823;47.404;8.566;2023-06-10T01:17:04;8.50;;;4.97;;
39242;SDS011;29823;47.404;8.566;2023-06-10T01:19:36;10.60;;;4.68;;
39242;SDS011;29823;47.404;8.566;2023-06-10T01:22:05;5.70;;;4.25;;
39242;SDS011;29823;47.404;8.566;2023-06-10T01:24:33;6.03;;;4.05;;
39242;SDS011;29823;47.404;8.566;2023-06-10T01:27:01;7.22;;;4.47;;
39242;SDS011;29823;47.404;8.566;2023-06-10T01:29:36;6.93;;;3.70;;
39242;SDS011;29823;47.404;8.566;2023-06-10T01:32:11;6.25;;;4.43;;
39242;SDS011;29823;47.404;8.566;2023-06-10T01:34:42;6.85;;;4.40;;
39242;SDS011;29823;47.404;8.566;2023-06-10T01:37:13;7.40;;;4.55;;
39242;SDS011;29823;47.404;8.566;2023-06-10T01:39:45;7.75;;;4.22;;
39242;SDS011;29823;47.404;8.566;2023-06-10T01:42:16;5.35;;;4.45;;
39242;SDS011;29823;47.404;8.566;2023-06-10T01:44:44;7.07;;;4.45;;
39242;SDS011;29823;47.404;8.566;2023-06-10T01:47:12;6.95;;;4.15;;
39242;SDS011;29823;47.404;8.566;2023-06-10T01:49:40;6.85;;;4.32;;
39242;SDS011;29823;47.404;8.566;2023-06-10T01:52:08;7.45;;;4.68;;
39242;SDS011;29823;47.404;8.566;2023-06-10T01:54:37;7.53;;;4.13;;
39242;SDS011;29823;47.404;8.566;2023-06-10T01:57:05;7.60;;;4.05;;
39242;SDS011;29823;47.404;8.566;2023-06-10T01:59:33;6.72;;;4.22;;
39242;SDS011;29823;47.404;8.566;2023-06-10T02:02:02;8.60;;;4.57;;
39242;SDS011;29823;47.404;8.566;2023-06-10T02:04:31;6.60;;;4.60;;
39242;SDS011;29823;47.404;8.566;2023-06-10T02:06:59;5.72;;;4.28;;
39242;SDS011;29823;47.404;8.566;2023-06-10T02:09:30;10.77;;;4.18;;
39242;SDS011;29823;47.404;8.566;2023-06-10T02:12:03;8.82;;;4.50;;
39242;SDS011;29823;47.404;8.566;2023-06-10T02:14:32;6.95;;;4.28;;
39242;SDS011;29823;47.404;8.566;2023-06-10T02:17:00;11.95;;;6.80;;
39242;SDS011;29823;47.404;8.566;2023-06-10T02:19:28;14.90;;;9.85;;
39242;SDS011;29823;47.404;8.566;2023-06-10T02:21:57;11.98;;;7.57;;
39242;SDS011;29823;47.404;8.566;2023-06-10T02:24:25;9.30;;;5.43;;
39242;SDS011;29823;47.404;8.566;2023-06-10T02:26:52;9.40;;;5.18;;
39242;SDS011;29823;47.404;8.566;2023-06-10T02:29:23;6.32;;;4.80;;
39242;SDS011;29823;47.404;8.566;2023-06-10T02:31:51;6.57;;;4.53;;
39242;SDS011;29823;47.404;8.566;2023-06-10T02:34:19;8.52;;;5.13;;
39242;SDS011;29823;47.404;8.566;2023-06-10T02:36:47;5.85;;;4.35;;
39242;SDS011;29823;47.404;8.566;2023-06-10T02:39:17;10.32;;;4.88;;
39242;SDS011;29823;47.404;8.566;2023-06-10T02:41:45;6.50;;;4.78;;
39242;SDS011;29823;47.404;8.566;2023-06-10T02:44:13;9.15;;;4.60;;
39242;SDS011;29823;47.404;8.566;2023-06-10T02:46:42;6.88;;;4.38;;
39242;SDS011;29823;47.404;8.566;2023-06-10T02:49:10;8.18;;;4.65;;
39242;SDS011;29823;47.404;8.566;2023-06-10T02:51:38;5.80;;;4.22;;
39242;SDS011;29823;47.404;8.566;2023-06-10T02:54:09;6.88;;;4.88;;
39242;SDS011;29823;47.404;8.566;2023-06-10T02:56:36;6.13;;;4.70;;
39242;SDS011;29823;47.404;8.566;2023-06-10T02:59:08;12.40;;;5.18;;
39242;SDS011;29823;47.404;8.566;2023-06-10T03:01:37;7.95;;;5.82;;
39242;SDS011;29823;47.404;8.566;2023-06-10T03:04:06;7.03;;;4.95;;
39242;SDS011;29823;47.404;8.566;2023-06-10T03:06:35;12.63;;;5.40;;
39242;SDS011;29823;47.404;8.566;2023-06-10T03:09:04;7.82;;;5.13;;
39242;SDS011;29823;47.404;8.566;2023-06-10T03:11:32;6.45;;;5.05;;
39242;SDS011;29823;47.404;8.566;2023-06-10T03:14:00;6.50;;;5.20;;
39242;SDS011;29823;47.404;8.566;2023-06-10T03:16:28;10.05;;;5.20;;
39242;SDS011;29823;47.404;8.566;2023-06-10T03:18:57;7.53;;;5.60;;
39242;SDS011;29823;47.404;8.566;2023-06-10T03:21:27;8.43;;;4.97;;
39242;SDS011;29823;47.404;8.566;2023-06-10T03:23:54;8.07;;;5.15;;
39242;SDS011;29823;47.404;8.566;2023-06-10T03:26:22;6.82;;;4.60;;
39242;SDS011;29823;47.404;8.566;2023-06-10T03:28:50;8.50;;;5.50;;
39242;SDS011;29823;47.404;8.566;2023-06-10T03:31:18;8.80;;;5.10;;
39242;SDS011;29823;47.404;8.566;2023-06-10T03:33:46;8.35;;;4.70;;
39242;SDS011;29823;47.404;8.566;2023-06-10T03:36:14;9.68;;;4.95;;
39242;SDS011;29823;47.404;8.566;2023-06-10T03:38:43;8.18;;;5.20;;
39242;SDS011;29823;47.404;8.566;2023-06-10T03:41:11;9.27;;;5.40;;
39242;SDS011;29823;47.404;8.566;2023-06-10T03:43:38;7.30;;;5.32;;
39242;SDS011;29823;47.404;8.566;2023-06-10T03:46:08;5.68;;;5.00;;
39242;SDS011;29823;47.404;8.566;2023-06-10T03:48:36;5.95;;;4.68;;
39242;SDS011;29823;47.404;8.566;2023-06-10T03:51:05;10.75;;;5.53;;
39242;SDS011;29823;47.404;8.566;2023-06-10T03:53:32;7.32;;;5.00;;
39242;SDS011;29823;47.404;8.566;2023-06-10T03:56:02;9.35;;;5.20;;
39242;SDS011;29823;47.404;8.566;2023-06-10T03:58:30;7.57;;;5.15;;
39242;SDS011;29823;47.404;8.566;2023-06-10T04:00:57;9.50;;;5.40;;
39242;SDS011;29823;47.404;8.566;2023-06-10T04:03:25;7.65;;;5.53;;
39242;SDS011;29823;47.404;8.566;2023-06-10T04:05:53;7.45;;;5.15;;
39242;SDS011;29823;47.404;8.566;2023-06-10T04:08:21;8.98;;;5.25;;
39242;SDS011;29823;47.404;8.566;2023-06-10T04:10:49;7.72;;;5.28;;
39242;SDS011;29823;47.404;8.566;2023-06-10T04:13:19;10.20;;;6.07;;
39242;SDS011;29823;47.404;8.566;2023-06-10T04:15:46;9.20;;;5.80;;
39242;SDS011;29823;47.404;8.566;2023-06-10T04:18:14;7.43;;;5.05;;
39242;SDS011;29823;47.404;8.566;2023-06-10T04:20:42;9.10;;;5.20;;
39242;SDS011;29823;47.404;8.566;2023-06-10T04:23:11;7.57;;;5.03;;
39242;SDS011;29823;47.404;8.566;2023-06-10T04:25:39;9.88;;;5.38;;
39242;SDS011;29823;47.404;8.566;2023-06-10T04:28:06;7.00;;;5.35;;
39242;SDS011;29823;47.404;8.566;2023-06-10T04:30:35;7.55;;;5.13;;
39242;SDS011;29823;47.404;8.566;2023-06-10T04:33:03;8.98;;;6.05;;
39242;SDS011;29823;47.404;8.566;2023-06-10T04:35:34;6.75;;;5.15;;
39242;SDS011;29823;47.404;8.566;2023-06-10T04:38:02;6.75;;;5.07;;
39242;SDS011;29823;47.404;8.566;2023-06-10T04:40:30;7.78;;;5.20;;
39242;SDS011;29823;47.404;8.566;2023-06-10T04:42:58;10.07;;;5.35;;
39242;SDS011;29823;47.404;8.566;2023-06-10T04:45:26;11.43;;;5.38;;
39242;SDS011;29823;47.404;8.566;2023-06-10T04:47:56;9.05;;;5.40;;
39242;SDS011;29823;47.404;8.566;2023-06-10T04:50:24;7.07;;;5.30;;
39242;SDS011;29823;47.404;8.566;2023-06-10T04:52:52;9.00;;;6.00;;
39242;SDS011;29823;47.404;8.566;2023-06-10T04:55:20;11.13;;;5.82;;
39242;SDS011;29823;47.404;8.566;2023-06-10T04:57:48;8.18;;;4.93;;
39242;SDS011;29823;47.404;8.566;2023-06-10T05:00:18;8.80;;;5.47;;
39242;SDS011;29823;47.404;8.566;2023-06-10T05:02:46;9.18;;;5.43;;
39242;SDS011;29823;47.404;8.566;2023-06-10T05:05:17;9.10;;;5.95;;
39242;SDS011;29823;47.404;8.566;2023-06-10T05:07:45;10.55;;;5.95;;
39242;SDS011;29823;47.404;8.566;2023-06-10T05:10:13;8.27;;;4.95;;
39242;SDS011;29823;47.404;8.566;2023-06-10T05:12:41;8.50;;;5.72;;
39242;SDS011;29823;47.404;8.566;2023-06-10T05:15:10;14.27;;;5.97;;
39242;SDS011;29823;47.404;8.566;2023-06-10T05:17:38;6.97;;;5.53;;
39242;SDS011;29823;47.404;8.566;2023-06-10T05:20:06;7.15;;;5.60;;
39242;SDS011;29823;47.404;8.566;2023-06-10T05:22:36;12.43;;;6.25;;
39242;SDS011;29823;47.404;8.566;2023-06-10T05:25:04;11.27;;;5.57;;
39242;SDS011;29823;47.404;8.566;2023-06-10T05:27:33;9.27;;;5.35;;
39242;SDS011;29823;47.404;8.566;2023-06-10T05:30:02;7.50;;;5.60;;
39242;SDS011;29823;47.404;8.566;2023-06-10T05:32:30;9.05;;;5.63;;
39242;SDS011;29823;47.404;8.566;2023-06-10T05:34:58;9.25;;;5.85;;
39242;SDS011;29823;47.404;8.566;2023-06-10T05:37:27;9.85;;;6.82;;
39242;SDS011;29823;47.404;8.566;2023-06-10T05:39:56;20.25;;;11.70;;
39242;SDS011;29823;47.404;8.566;2023-06-10T05:42:24;13.43;;;7.60;;
39242;SDS011;29823;47.404;8.566;2023-06-10T05:44:52;10.18;;;6.85;;
39242;SDS011;29823;47.404;8.566;2023-06-10T05:47:19;12.07;;;6.97;;
39242;SDS011;29823;47.404;8.566;2023-06-10T05:49:47;9.18;;;6.72;;
39242;SDS011;29823;47.404;8.566;2023-06-10T05:52:18;13.60;;;6.85;;
39242;SDS011;29823;47.404;8.566;2023-06-10T05:54:45;12.38;;;6.75;;
39242;SDS011;29823;47.404;8.566;2023-06-10T05:57:14;9.55;;;6.75;;
39242;SDS011;29823;47.404;8.566;2023-06-10T05:59:42;9.10;;;6.63;;
39242;SDS011;29823;47.404;8.566;2023-06-10T06:02:10;12.63;;;7.93;;
39242;SDS011;29823;47.404;8.566;2023-06-10T06:04:38;10.27;;;6.20;;
39242;SDS011;29823;47.404;8.566;2023-06-10T06:07:06;11.75;;;7.18;;
39242;SDS011;29823;47.404;8.566;2023-06-10T06:09:34;11.07;;;8.02;;
39242;SDS011;29823;47.404;8.566;2023-06-10T06:12:02;10.18;;;7.85;;
39242;SDS011;29823;47.404;8.566;2023-06-10T06:14:31;10.45;;;6.72;;
39242;SDS011;29823;47.404;8.566;2023-06-10T06:16:59;13.80;;;9.77;;
39242;SDS011;29823;47.404;8.566;2023-06-10T06:19:27;12.88;;;8.35;;
39242;SDS011;29823;47.404;8.566;2023-06-10T06:21:55;17.50;;;7.82;;
39242;SDS011;29823;47.404;8.566;2023-06-10T06:24:22;9.23;;;6.72;;
39242;SDS011;29823;47.404;8.566;2023-06-10T06:26:50;17.60;;;11.32;;
39242;SDS011;29823;47.404;8.566;2023-06-10T06:29:18;13.55;;;8.25;;
39242;SDS011;29823;47.404;8.566;2023-06-10T06:31:47;10.60;;;6.57;;
39242;SDS011;29823;47.404;8.566;2023-06-10T06:34:15;9.38;;;6.13;;
39242;SDS011;29823;47.404;8.566;2023-06-10T06:36:43;15.70;;;11.02;;
39242;SDS011;29823;47.404;8.566;2023-06-10T06:39:11;8.95;;;6.60;;
39242;SDS011;29823;47.404;8.566;2023-06-10T06:41:39;8.77;;;6.07;;
39242;SDS011;29823;47.404;8.566;2023-06-10T06:44:06;9.82;;;6.20;;
39242;SDS011;29823;47.404;8.566;2023-06-10T06:46:34;10.00;;;6.22;;
39242;SDS011;29823;47.404;8.566;2023-06-10T06:49:03;8.38;;;6.65;;
39242;SDS011;29823;47.404;8.566;2023-06-10T06:51:31;7.97;;;6.50;;
39242;SDS011;29823;47.404;8.566;2023-06-10T06:53:59;8.93;;;6.80;;
39242;SDS011;29823;47.404;8.566;2023-06-10T06:56:27;10.95;;;8.82;;
39242;SDS011;29823;47.404;8.566;2023-06-10T06:58:54;9.38;;;6.57;;
39242;SDS011;29823;47.404;8.566;2023-06-10T07:01:23;10.35;;;6.75;;
39242;SDS011;29823;47.404;8.566;2023-06-10T07:03:51;11.00;;;6.60;;
39242;SDS011;29823;47.404;8.566;2023-06-10T07:06:20;12.63;;;6.85;;
39242;SDS011;29823;47.404;8.566;2023-06-10T07:08:49;10.25;;;6.80;;
39242;SDS011;29823;47.404;8.566;2023-06-10T07:11:17;11.20;;;6.93;;
39242;SDS011;29823;47.404;8.566;2023-06-10T07:13:45;11.00;;;6.60;;
39242;SDS011;29823;47.404;8.566;2023-06-10T07:16:12;8.63;;;6.68;;
39242;SDS011;29823;47.404;8.566;2023-06-10T07:18:40;8.77;;;6.57;;
39242;SDS011;29823;47.404;8.566;2023-06-10T07:21:08;14.77;;;11.18;;
39242;SDS011;29823;47.404;8.566;2023-06-10T07:23:37;8.43;;;6.97;;
39242;SDS011;29823;47.404;8.566;2023-06-10T07:26:09;10.40;;;6.72;;
39242;SDS011;29823;47.404;8.566;2023-06-10T07:28:37;10.55;;;7.35;;
39242;SDS011;29823;47.404;8.566;2023-06-10T07:31:05;9.98;;;7.03;;
39242;SDS011;29823;47.404;8.566;2023-06-10T07:33:34;10.25;;;6.78;;
39242;SDS011;29823;47.404;8.566;2023-06-10T07:36:03;8.55;;;6.47;;
39242;SDS011;29823;47.404;8.566;2023-06-10T07:38:31;10.02;;;6.78;;
39242;SDS011;29823;47.404;8.566;2023-06-10T07:41:00;10.93;;;6.43;;
39242;SDS011;29823;47.404;8.566;2023-06-10T07:43:28;9.43;;;6.40;;
39242;SDS011;29823;47.404;8.566;2023-06-10T07:45:56;8.20;;;6.75;;
39242;SDS011;29823;47.404;8.566;2023-06-10T07:48:23;10.70;;;8.15;;
39242;SDS011;29823;47.404;8.566;2023-06-10T07:50:51;15.27;;;8.65;;
39242;SDS011;29823;47.404;8.566;2023-06-10T07:53:19;10.60;;;7.75;;
39242;SDS011;29823;47.404;8.566;2023-06-10T07:55:47;12.88;;;9.82;;
39242;SDS011;29823;47.404;8.566;2023-06-10T07:58:16;9.65;;;6.65;;
39242;SDS011;29823;47.404;8.566;2023-06-10T08:00:44;10.27;;;7.68;;
39242;SDS011;29823;47.404;8.566;2023-06-10T08:03:12;8.57;;;6.63;;
39242;SDS011;29823;47.404;8.566;2023-06-10T08:05:40;9.38;;;6.78;;
39242;SDS011;29823;47.404;8.566;2023-06-10T08:08:08;9.40;;;6.95;;
39242;SDS011;29823;47.404;8.566;2023-06-10T08:10:36;8.82;;;6.30;;
39242;SDS011;29823;47.404;8.566;2023-06-10T08:13:04;7.45;;;5.97;;
39242;SDS011;29823;47.404;8.566;2023-06-10T08:15:33;7.68;;;6.28;;
39242;SDS011;29823;47.404;8.566;2023-06-10T08:18:01;8.98;;;6.43;;
39242;SDS011;29823;47.404;8.566;2023-06-10T08:20:29;8.90;;;6.13;;
39242;SDS011;29823;47.404;8.566;2023-06-10T08:22:57;10.45;;;6.70;;
39242;SDS011;29823;47.404;8.566;2023-06-10T08:25:25;6.70;;;5.93;;
39242;SDS011;29823;47.404;8.566;2023-06-10T08:27:53;10.10;;;6.30;;
39242;SDS011;29823;47.404;8.566;2023-06-10T08:30:22;7.75;;;5.40;;
39242;SDS011;29823;47.404;8.566;2023-06-10T08:32:52;7.20;;;6.13;;
39242;SDS011;29823;47.404;8.566;2023-06-10T08:35:19;7.70;;;6.53;;
39242;SDS011;29823;47.404;8.566;2023-06-10T08:37:47;7.63;;;6.60;;
39242;SDS011;29823;47.404;8.566;2023-06-10T08:40:15;8.10;;;6.38;;
39242;SDS011;29823;47.404;8.566;2023-06-10T08:42:45;10.50;;;6.40;;
39242;SDS011;29823;47.404;8.566;2023-06-10T08:45:17;7.95;;;6.45;;
39242;SDS011;29823;47.404;8.566;2023-06-10T08:47:45;7.30;;;6.07;;
39242;SDS011;29823;47.404;8.566;2023-06-10T08:50:19;9.30;;;7.20;;
39242;SDS011;29823;47.404;8.566;2023-06-10T08:52:48;10.82;;;6.40;;
39242;SDS011;29823;47.404;8.566;2023-06-10T08:55:21;8.65;;;7.03;;
39242;SDS011;29823;47.404;8.566;2023-06-10T08:57:58;10.75;;;7.00;;
39242;SDS011;29823;47.404;8.566;2023-06-10T09:00:27;8.13;;;7.00;;
39242;SDS011;29823;47.404;8.566;2023-06-10T09:02:56;10.25;;;7.78;;
39242;SDS011;29823;47.404;8.566;2023-06-10T09:05:31;9.55;;;7.35;;
39242;SDS011;29823;47.404;8.566;2023-06-10T09:08:01;10.45;;;6.68;;
39242;SDS011;29823;47.404;8.566;2023-06-10T09:10:29;10.50;;;6.55;;
39242;SDS011;29823;47.404;8.566;2023-06-10T09:12:57;10.27;;;6.55;;
39242;SDS011;29823;47.404;8.566;2023-06-10T09:15:25;15.77;;;7.25;;
39242;SDS011;29823;47.404;8.566;2023-06-10T09:17:52;8.57;;;6.50;;
39242;SDS011;29823;47.404;8.566;2023-06-10T09:20:20;9.27;;;6.55;;
39242;SDS011;29823;47.404;8.566;2023-06-10T09:22:49;10.10;;;6.45;;
39242;SDS011;29823;47.404;8.566;2023-06-10T09:25:17;8.00;;;6.53;;
39242;SDS011;29823;47.404;8.566;2023-06-10T09:27:46;9.02;;;7.82;;
39242;SDS011;29823;47.404;8.566;2023-06-10T09:30:26;9.98;;;6.07;;
39242;SDS011;29823;47.404;8.566;2023-06-10T09:32:55;7.40;;;5.68;;
39242;SDS011;29823;47.404;8.566;2023-06-10T09:35:24;6.40;;;5.60;;
39242;SDS011;29823;47.404;8.566;2023-06-10T09:37:55;8.18;;;6.00;;
39242;SDS011;29823;47.404;8.566;2023-06-10T09:40:24;8.43;;;6.30;;
39242;SDS011;29823;47.404;8.566;2023-06-10T09:42:52;6.10;;;5.20;;
39242;SDS011;29823;47.404;8.566;2023-06-10T09:45:22;11.80;;;7.00;;
39242;SDS011;29823;47.404;8.566;2023-06-10T09:47:53;10.30;;;6.65;;
39242;SDS011;29823;47.404;8.566;2023-06-10T09:52:50;8.52;;;6.85;;
39242;SDS011;29823;47.404;8.566;2023-06-10T09:55:19;7.85;;;6.30;;
39242;SDS011;29823;47.404;8.566;2023-06-10T09:57:48;8.85;;;6.07;;
39242;SDS011;29823;47.404;8.566;2023-06-10T10:00:17;12.10;;;6.60;;
39242;SDS011;29823;47.404;8.566;2023-06-10T10:02:46;9.85;;;6.68;;
39242;SDS011;29823;47.404;8.566;2023-06-10T10:05:15;7.82;;;6.38;;
39242;SDS011;29823;47.404;8.566;2023-06-10T10:07:45;10.05;;;6.50;;
39242;SDS011;29823;47.404;8.566;2023-06-10T10:10:14;11.20;;;7.00;;
39242;SDS011;29823;47.404;8.566;2023-06-10T10:12:45;8.82;;;6.03;;
39242;SDS011;29823;47.404;8.566;2023-06-10T10:15:15;12.05;;;6.75;;
39242;SDS011;29823;47.404;8.566;2023-06-10T10:17:46;11.35;;;6.60;;
39242;SDS011;29823;47.404;8.566;2023-06-10T10:20:20;8.68;;;5.90;;
39242;SDS011;29823;47.404;8.566;2023-06-10T10:22:52;8.10;;;6.40;;
39242;SDS011;29823;47.404;8.566;2023-06-10T10:25:24;9.32;;;5.97;;
39242;SDS011;29823;47.404;8.566;2023-06-10T10:27:58;9.02;;;6.88;;
39242;SDS011;29823;47.404;8.566;2023-06-10T10:30:34;7.00;;;6.30;;
39242;SDS011;29823;47.404;8.566;2023-06-10T10:33:08;9.25;;;6.03;;
39242;SDS011;29823;47.404;8.566;2023-06-10T10:35:40;7.80;;;6.15;;
39242;SDS011;29823;47.404;8.566;2023-06-10T10:38:09;10.70;;;6.60;;
39242;SDS011;29823;47.404;8.566;2023-06-10T10:40:37;8.65;;;6.88;;
39242;SDS011;29823;47.404;8.566;2023-06-10T10:43:08;25.38;;;8.40;;
39242;SDS011;29823;47.404;8.566;2023-06-10T10:45:36;24.60;;;11.10;;
39242;SDS011;29823;47.404;8.566;2023-06-10T10:48:05;10.18;;;6.30;;
39242;SDS011;29823;47.404;8.566;2023-06-10T10:50:38;10.15;;;5.38;;
39242;SDS011;29823;47.404;8.566;2023-06-10T10:53:06;18.17;;;7.28;;
39242;SDS011;29823;47.404;8.566;2023-06-10T10:55:35;7.22;;;6.13;;
39242;SDS011;29823;47.404;8.566;2023-06-10T10:58:03;13.55;;;6.85;;
39242;SDS011;29823;47.404;8.566;2023-06-10T11:00:36;7.35;;;6.38;;
39242;SDS011;29823;47.404;8.566;2023-06-10T11:03:05;7.40;;;6.55;;
39242;SDS011;29823;47.404;8.566;2023-06-10T11:05:38;10.25;;;5.88;;
39242;SDS011;29823;47.404;8.566;2023-06-10T11:08:07;10.52;;;6.10;;
39242;SDS011;29823;47.404;8.566;2023-06-10T11:10:36;7.00;;;5.90;;
39242;SDS011;29823;47.404;8.566;2023-06-10T11:13:05;34.75;;;12.10;;
39242;SDS011;29823;47.404;8.566;2023-06-10T11:15:39;9.35;;;5.97;;
39242;SDS011;29823;47.404;8.566;2023-06-10T11:18:12;45.47;;;9.85;;
39242;SDS011;29823;47.404;8.566;2023-06-10T11:20:54;9.30;;;5.80;;
39242;SDS011;29823;47.404;8.566;2023-06-10T11:23:24;10.02;;;5.65;;
39242;SDS011;29823;47.404;8.566;2023-06-10T11:26:12;5.70;;;5.03;;
39242;SDS011;29823;47.404;8.566;2023-06-10T11:31:51;8.35;;;4.88;;
39242;SDS011;29823;47.404;8.566;2023-06-10T11:34:22;6.47;;;5.22;;
39242;SDS011;29823;47.404;8.566;2023-06-10T11:36:53;9.57;;;4.60;;
39242;SDS011;29823;47.404;8.566;2023-06-10T11:39:21;7.88;;;5.55;;
39242;SDS011;29823;47.404;8.566;2023-06-10T11:41:52;6.32;;;4.13;;
39242;SDS011;29823;47.404;8.566;2023-06-10T11:44:21;8.63;;;4.78;;
39242;SDS011;29823;47.404;8.566;2023-06-10T11:46:50;6.40;;;4.82;;
39242;SDS011;29823;47.404;8.566;2023-06-10T11:49:20;7.45;;;4.70;;
39242;SDS011;29823;47.404;8.566;2023-06-10T11:51:48;6.35;;;5.20;;
39242;SDS011;29823;47.404;8.566;2023-06-10T11:54:18;5.80;;;4.90;;
39242;SDS011;29823;47.404;8.566;2023-06-10T11:56:46;6.60;;;4.32;;
39242;SDS011;29823;47.404;8.566;2023-06-10T11:59:15;8.10;;;4.50;;
39242;SDS011;29823;47.404;8.566;2023-06-10T12:01:43;6.82;;;4.43;;
39242;SDS011;29823;47.404;8.566;2023-06-10T12:04:15;7.70;;;5.03;;
39242;SDS011;29823;47.404;8.566;2023-06-10T12:06:45;8.55;;;5.07;;
39242;SDS011;29823;47.404;8.566;2023-06-10T12:09:15;6.13;;;4.35;;
39242;SDS011;29823;47.404;8.566;2023-06-10T12:11:53;5.05;;;4.32;;
39242;SDS011;29823;47.404;8.566;2023-06-10T12:17:20;7.15;;;5.00;;
39242;SDS011;29823;47.404;8.566;2023-06-10T12:19:51;6.22;;;4.90;;
39242;SDS011;29823;47.404;8.566;2023-06-10T12:22:18;7.72;;;5.18;;
39242;SDS011;29823;47.404;8.566;2023-06-10T12:24:57;6.55;;;5.03;;
39242;SDS011;29823;47.404;8.566;2023-06-10T12:27:27;7.07;;;5.25;;
39242;SDS011;29823;47.404;8.566;2023-06-10T12:29:56;5.03;;;4.13;;
39242;SDS011;29823;47.404;8.566;2023-06-10T12:32:34;5.00;;;4.50;;
39242;SDS011;29823;47.404;8.566;2023-06-10T12:35:05;4.75;;;4.20;;
39242;SDS011;29823;47.404;8.566;2023-06-10T12:37:34;8.30;;;4.38;;
39242;SDS011;29823;47.404;8.566;2023-06-10T12:40:07;5.63;;;3.90;;
39242;SDS011;29823;47.404;8.566;2023-06-10T12:42:36;6.32;;;3.95;;
39242;SDS011;29823;47.404;8.566;2023-06-10T12:45:05;4.78;;;3.97;;
39242;SDS011;29823;47.404;8.566;2023-06-10T12:47:37;5.28;;;4.03;;
39242;SDS011;29823;47.404;8.566;2023-06-10T12:50:08;5.50;;;4.25;;
39242;SDS011;29823;47.404;8.566;2023-06-10T12:52:38;6.05;;;4.40;;
39242;SDS011;29823;47.404;8.566;2023-06-10T12:55:06;5.35;;;4.10;;
39242;SDS011;29823;47.404;8.566;2023-06-10T12:57:35;6.40;;;4.07;;
39242;SDS011;29823;47.404;8.566;2023-06-10T13:00:03;5.03;;;4.43;;
39242;SDS011;29823;47.404;8.566;2023-06-10T13:02:35;8.55;;;4.53;;
39242;SDS011;29823;47.404;8.566;2023-06-10T13:05:03;5.15;;;4.65;;
39242;SDS011;29823;47.404;8.566;2023-06-10T13:07:35;5.78;;;4.32;;
39242;SDS011;29823;47.404;8.566;2023-06-10T13:10:03;8.00;;;4.10;;
39242;SDS011;29823;47.404;8.566;2023-06-10T13:12:33;5.15;;;4.00;;
39242;SDS011;29823;47.404;8.566;2023-06-10T13:15:13;6.82;;;4.15;;
39242;SDS011;29823;47.404;8.566;2023-06-10T13:17:42;5.30;;;3.85;;
39242;SDS011;29823;47.404;8.566;2023-06-10T13:20:12;5.68;;;4.28;;
39242;SDS011;29823;47.404;8.566;2023-06-10T13:22:41;9.02;;;4.00;;
39242;SDS011;29823;47.404;8.566;2023-06-10T13:25:09;7.18;;;3.78;;
39242;SDS011;29823;47.404;8.566;2023-06-10T13:27:38;5.95;;;4.15;;
39242;SDS011;29823;47.404;8.566;2023-06-10T13:30:06;5.15;;;3.78;;
39242;SDS011;29823;47.404;8.566;2023-06-10T13:32:36;5.85;;;3.80;;
39242;SDS011;29823;47.404;8.566;2023-06-10T13:35:04;5.15;;;3.90;;
39242;SDS011;29823;47.404;8.566;2023-06-10T13:37:34;4.22;;;3.83;;
39242;SDS011;29823;47.404;8.566;2023-06-10T13:40:04;4.72;;;3.88;;
39242;SDS011;29823;47.404;8.566;2023-06-10T13:42:34;4.63;;;3.75;;
39242;SDS011;29823;47.404;8.566;2023-06-10T13:45:03;5.13;;;4.20;;
39242;SDS011;29823;47.404;8.566;2023-06-10T13:47:32;4.47;;;3.35;;
39242;SDS011;29823;47.404;8.566;2023-06-10T13:50:00;4.97;;;3.92;;
39242;SDS011;29823;47.404;8.566;2023-06-10T13:52:28;11.18;;;9.43;;
39242;SDS011;29823;47.404;8.566;2023-06-10T13:54:56;5.63;;;3.92;;
39242;SDS011;29823;47.404;8.566;2023-06-10T13:57:25;6.07;;;3.80;;
39242;SDS011;29823;47.404;8.566;2023-06-10T13:59:53;4.47;;;4.07;;
39242;SDS011;29823;47.404;8.566;2023-06-10T14:02:22;6.57;;;4.07;;
39242;SDS011;29823;47.404;8.566;2023-06-10T14:04:50;9.07;;;5.15;;
39242;SDS011;29823;47.404;8.566;2023-06-10T14:07:18;5.72;;;4.72;;
39242;SDS011;29823;47.404;8.566;2023-06-10T14:09:46;7.30;;;4.50;;
39242;SDS011;29823;47.404;8.566;2023-06-10T14:12:13;7.90;;;4.55;;
39242;SDS011;29823;47.404;8.566;2023-06-10T14:14:42;7.47;;;4.32;;
39242;SDS011;29823;47.404;8.566;2023-06-10T14:17:10;6.10;;;4.07;;
39242;SDS011;29823;47.404;8.566;2023-06-10T14:19:38;5.07;;;4.55;;
39242;SDS011;29823;47.404;8.566;2023-06-10T14:22:06;4.85;;;3.65;;
39242;SDS011;29823;47.404;8.566;2023-06-10T14:24:34;4.25;;;3.85;;
39242;SDS011;29823;47.404;8.566;2023-06-10T14:27:03;5.30;;;4.05;;
39242;SDS011;29823;47.404;8.566;2023-06-10T14:29:31;4.70;;;3.88;;
39242;SDS011;29823;47.404;8.566;2023-06-10T14:32:01;6.45;;;4.20;;
39242;SDS011;29823;47.404;8.566;2023-06-10T14:34:34;6.45;;;3.97;;
39242;SDS011;29823;47.404;8.566;2023-06-10T14:37:02;3.80;;;3.47;;
39242;SDS011;29823;47.404;8.566;2023-06-10T14:39:33;4.13;;;3.65;;
39242;SDS011;29823;47.404;8.566;2023-06-10T14:42:01;3.75;;;3.35;;
39242;SDS011;29823;47.404;8.566;2023-06-10T14:44:29;4.20;;;3.80;;
39242;SDS011;29823;47.404;8.566;2023-06-10T14:46:57;8.75;;;3.75;;
39242;SDS011;29823;47.404;8.566;2023-06-10T14:49:26;5.78;;;3.78;;
39242;SDS011;29823;47.404;8.566;2023-06-10T14:51:54;4.18;;;3.78;;
39242;SDS011;29823;47.404;8.566;2023-06-10T14:54:22;6.15;;;3.58;;
39242;SDS011;29823;47.404;8.566;2023-06-10T14:56:50;9.55;;;4.38;;
39242;SDS011;29823;47.404;8.566;2023-06-10T14:59:17;8.48;;;4.07;;
39242;SDS011;29823;47.404;8.566;2023-06-10T15:01:45;5.07;;;3.90;;
39242;SDS011;29823;47.404;8.566;2023-06-10T15:04:13;6.10;;;3.90;;